• Join FlightAware (Why Join?)
  • Login
  • US Flag 
10:25PM EST


 

Airport Tracker/Info


-or-


 

Live Flight TrackerFlight Track Log ✈ N960DL ✈ 22-Jun-2013 ✈ KBWI - KATL

Flight Track Log - Related Links

Times and Time Zones

All times are in EDT time to prevent confusion due to time zone crossing. See the N960DL flight status page for this flight to view local times or setup timezone preferences in your user account.

Time Position Orientation Groundspeed Altitude Reporting Facility
EDT Latitude Longitude Course Direction KTS MPH feet Rate Location/Type
09:43AM 39.1833 -76.7167 212° Southwest 194 223 1,600  Level Potomac TRACON
09:44AM 39.1833 -76.8167 270° West 252 290 4,200 2,880 Climbing Potomac TRACON
09:45AM 39.2000 -76.9000 284° West 282 325 7,400 3,240 Climbing Potomac TRACON
09:46AM 39.1248 -77.2122 211° Southwest  Level FlightAware Approximate
09:46AM 39.2167 -77.0000 282° West 283 326 10,500  Level Potomac TRACON
09:47AM 39.0246 -77.2920 218° Southwest  Level FlightAware Approximate
09:47AM 39.2167 -77.1167 270° West 338 389 11,800  Level Potomac TRACON
09:48AM 38.9264 -77.3756 212° Southwest  Level FlightAware Approximate
09:48AM 39.1500 -77.2167 229° Southwest 388 447 14,000  Level Potomac TRACON
09:49AM 39.0667 -77.2833 212° Southwest 398 458 16,400 2,280 Climbing Potomac TRACON
09:50AM 38.9500 -77.3667 209° Southwest 419 482 18,600 2,040 Climbing Potomac TRACON
09:51AM 38.8500 -77.4333 207° Southwest 441 507 20,700 1,680 Climbing Potomac TRACON
09:54AM 38.6192 -77.6192 212° Southwest 447 514 24,300 1,800 Climbing Washington Center
09:55AM 38.5064 -77.7381 220° Southwest 454 522 27,000 1,800 Climbing Washington Center
09:56AM 38.4269 -77.8603 230° Southwest 454 522 28,000 480 Climbing Washington Center
09:57AM 38.3561 -77.9747 232° Southwest 459 528 28,000  Level Washington Center
09:58AM 38.2806 -78.1019 233° Southwest 466 536 28,000  Level Washington Center
09:59AM 38.1983 -78.2311 231° Southwest 466 536 28,000  Level Washington Center
10:00AM 38.1225 -78.3578 233° Southwest 466 536 28,000  Level Washington Center
10:01AM 38.0444 -78.4842 232° Southwest 461 531 28,000  Level Washington Center
10:02AM 37.9619 -78.6206 233° Southwest 456 525 28,000  Level Washington Center
10:03AM 37.8814 -78.7489 232° Southwest 456 525 28,000  Level Washington Center
10:04AM 37.8139 -78.8617 233° Southwest 462 532 28,000  Level Washington Center
10:05AM 37.7353 -78.9897 232° Southwest 462 532 28,000  Level Washington Center
10:06AM 37.6544 -79.1147 231° Southwest 462 532 28,000  Level Washington Center
10:07AM 37.5667 -79.2547 232° Southwest 462 532 28,000  Level Washington Center
10:08AM 37.4856 -79.3817 231° Southwest 462 532 28,000  Level Washington Center
10:09AM 37.4069 -79.4903 228° Southwest 469 540 28,000  Level Washington Center
10:10AM 37.3275 -79.6192 232° Southwest 469 540 28,000  Level Washington Center
10:11AM 37.2417 -79.7556 232° Southwest 469 540 28,000  Level Washington Center
10:12AM 37.1578 -79.8814 230° Southwest 469 540 28,000  Level Washington Center
10:13AM 37.0325 -80.0686 230° Southwest 466 536 28,000  Level Atlanta Center
10:14AM 36.9531 -80.1919 231° Southwest 466 536 28,000  Level Atlanta Center
10:15AM 36.8694 -80.3156 230° Southwest 466 536 28,000  Level Atlanta Center
10:16AM 36.7794 -80.4519 231° Southwest 466 536 28,000  Level Atlanta Center
10:17AM 36.7136 -80.5506 230° Southwest 466 536 28,000  Level Atlanta Center
10:18AM 36.6275 -80.6811 231° Southwest 461 531 28,000  Level Atlanta Center
10:19AM 36.5475 -80.8033 231° Southwest 461 531 28,000  Level Atlanta Center
10:20AM 36.4672 -80.9281 231° Southwest 461 531 28,000  Level Atlanta Center
10:21AM 36.3847 -81.0525 231° Southwest 467 537 28,000  Level Atlanta Center
10:22AM 36.2961 -81.1844 230° Southwest 467 537 28,000  Level Atlanta Center
10:23AM 36.2136 -81.3108 231° Southwest 467 537 28,000  Level Atlanta Center
10:24AM 36.1328 -81.4292 230° Southwest 467 537 28,000  Level Atlanta Center
10:25AM 36.0497 -81.5528 230° Southwest 467 537 28,000  Level Atlanta Center
10:26AM 35.9686 -81.6733 230° Southwest 467 537 28,000  Level Atlanta Center
10:27AM 35.8856 -81.7986 231° Southwest 467 537 28,000  Level Atlanta Center
10:28AM 35.8000 -81.9161 228° Southwest 462 532 28,000  Level Atlanta Center
10:29AM 35.7122 -82.0311 227° Southwest 462 532 28,000  Level Atlanta Center
10:30AM 35.6242 -82.1406 225° Southwest 462 532 28,000  Level Atlanta Center
10:31AM 35.5278 -82.2500 223° Southwest 462 532 28,000 -600 Level Atlanta Center
10:32AM 35.4356 -82.3514 222° Southwest 462 532 26,900 -1,320 Descending Atlanta Center
10:33AM 35.3431 -82.4550 222° Southwest 462 532 25,400 -1,500 Descending Atlanta Center
10:34AM 35.2606 -82.5481 223° Southwest 439 505 24,000 -720 Descending Atlanta Center
10:35AM 35.1761 -82.6411 222° Southwest 419 482 24,000  Level Atlanta Center
10:36AM 35.0917 -82.7392 224° Southwest 414 476 24,000  Level Atlanta Center
10:37AM 35.0153 -82.8189 221° Southwest 414 476 24,000  Level Atlanta Center
10:38AM 34.9203 -82.9217 222° Southwest 414 476 24,000  Level Atlanta Center
10:39AM 34.8356 -83.0164 223° Southwest 414 476 24,000  Level Atlanta Center
10:40AM 34.7550 -83.1033 222° Southwest 414 476 24,000  Level Atlanta Center
10:41AM 34.6658 -83.2028 223° Southwest 425 489 24,000  Level Atlanta Center
10:42AM 34.5747 -83.3022 222° Southwest 434 499 24,000 -120 Level Atlanta Center
10:43AM 34.4833 -83.4036 222° Southwest 446 513 23,800 -1,320 Descending Atlanta Center
10:44AM 34.3942 -83.5050 223° Southwest 441 507 21,400 -2,340 Descending Atlanta Center
10:45AM 34.3111 -83.5961 222° Southwest 427 491 19,200 -2,400 Descending Atlanta Center
10:46AM 34.2236 -83.6947 223° Southwest 408 470 16,600 -2,520 Descending Atlanta Center
10:47AM 34.1425 -83.7828 222° Southwest 395 455 14,200 -1,320 Descending Atlanta Center
10:48AM 34.0633 -83.8683 222° Southwest 389 448 14,000 -480 Descending Atlanta Center
10:49AM 33.9947 -83.9636 229° Southwest 388 447 13,300 -1,020 Descending Atlanta Center
10:50AM 33.9300 -84.0614 231° Southwest 382 440 12,000 -660 Descending Atlanta Center
10:51AM 33.8653 -84.1564 231° Southwest 376 433 12,000 -60 Level Atlanta Center
10:52AM 33.8044 -84.2439 230° Southwest 361 415 11,900  Descending Atlanta Center
10:53AM 33.7606 -84.3086 231° Southwest 319 367 12,000 -1,440 Climbing Atlanta Center
10:54AM 33.7269 -84.3786 240° Southwest 261 300 9,100 -2,700 Descending Atlanta Center
10:55AM 33.7308 -84.4608 273° West 240 276 6,600 -1,860 Descending Atlanta Center
10:57AM 33.7333 -84.5667 272° West 228 262 5,000 -1,020 Descending Atlanta TRACON
10:58AM 33.7333 -84.6333 270° West 200 230 4,300 -600 Descending Atlanta TRACON
10:59AM 33.6833 -84.6500 196° South 194 223 3,800 -540 Descending Atlanta TRACON